메인 페이지
METAR-TAF:

METAR-TAF

공항 :

Teterboro, 뉴저지, 미국

위도: 40-51-32N, 경도: 074-03-24W, 고도: 2m

현재 날씨관측

예보는 20분 전, 08:51시(UTC)에 발표되었습니다.
무풍
온도 17°C
습도 94%
기압 1008 hPa
시정: 16.1km
맑음
낮은 안개

METAR: KTEB 040851Z 00000KT 10SM MIFG CLR 17/16 A2977 RMK AO2 SLP079 T01720156 53010

시각: 05:11 (09:11 UTC)

예보

예보는 35분 전, 08:36시(UTC)에 발표되었습니다.
예보 대상 시간: 04일 09시부터 05일 12시까지 (UTC)
여러 방향의 바람 4kt
시정: 10km
고도 25000ft 상공 구름 많음
04일 1300시부터 (UTC)
서북서5kt
시정: 10km
고도 25000ft 상공 구름 많음
04일 1800시부터 (UTC)
서남서7kt
시정: 10km
고도 25000ft 상공 구름 많음
04일 2100시부터 (UTC)
7kt
시정: 10km
고도 15000ft 상공 구름 보통
고도 25000ft 상공 구름 많음
05일 0000시부터 (UTC)
남남서5kt
시정: 10km
고도 5000ft 상공 구름 보통
고도 8000ft 상공 구름 많음
시계 내 소나기
05일 0600시부터 (UTC)
여러 방향의 바람 4kt
시정: 10km
고도 5000ft 상공 구름 보통
고도 10000ft 상공 구름 많음

TAF: KTEB 040836Z 0409/0512 VRB04KT P6SM BKN250 FM041300 30005KT P6SM BKN250 FM041800 24007KT P6SM BKN250 FM042100 18007KT P6SM SCT150 BKN250 FM050000 21005KT P6SM VCSH SCT050 BKN080 FM050600 VRB04KT P6SM SCT050 BKN100

4,000개 이상의 공항 관측 자료 및 예보 (METAR 및 TAF 보고).

지도상에서 검색 가능한 기상관측소가 노란 점과 빨간 점으로 표시되어 있습니다.

기상관측소 명을 보려면 표시 위로 마우스를 이동하세요.

날씨 관측과 예보를 보려면 클릭하세요.

지도 변경 : 확대하려면 엑스 표시가 있는 녹색 버튼, 축소하려면 빼기 표시가 있는 녹색 버튼, 다음 페이지의 지도를 보려면 녹색 화살표를 클릭하세요.


METAR-TAF: